Time;durP1;ratioP1;P1;durP2;ratioP2;P2;SDS_P1;SDS_P2;PMS_P1;PMS_P2;Temp;Humidity;BMP_temperature;BMP_pressure;BME280_temperature;BME280_humidity;BME280_pressure;Samples;Min_cycle;Max_cycle;Signal;HPM_P1;HPM_P2
2020/12/04 00:00:14;;;;;;;27.73;14.80;;;;;;;-0.09;89.93;97145.00;1804956;79;21030;-74
2020/12/04 00:02:41;;;;;;;21.83;11.40;;;;;;;-0.10;89.92;97152.29;1804913;79;21050;-74
2020/12/04 00:05:09;;;;;;;26.55;12.93;;;;;;;-0.11;89.87;97139.58;1804957;79;21458;-74
2020/12/04 00:07:36;;;;;;;22.60;12.43;;;;;;;-0.14;89.93;97144.84;1804949;79;21017;-75
2020/12/04 00:10:03;;;;;;;20.05;10.82;;;;;;;-0.15;89.94;97147.02;1804984;79;20903;-75
2020/12/04 00:12:30;;;;;;;24.00;11.23;;;;;;;-0.16;89.80;97150.47;1805086;79;21636;-74
2020/12/04 00:14:58;;;;;;;21.27;10.85;;;;;;;-0.16;89.60;97148.74;1804873;79;21488;-74
2020/12/04 00:17:25;;;;;;;24.87;12.17;;;;;;;-0.14;89.50;97150.78;1805093;79;20927;-75
2020/12/04 00:19:52;;;;;;;18.50;10.05;;;;;;;-0.13;89.59;97144.77;1805050;79;20868;-74
2020/12/04 00:22:19;;;;;;;20.35;11.57;;;;;;;-0.10;89.61;97136.95;1805262;79;20978;-74
2020/12/04 00:24:46;;;;;;;20.95;10.88;;;;;;;-0.12;89.59;97154.09;1805080;79;21708;-74
2020/12/04 00:27:14;;;;;;;23.83;10.53;;;;;;;-0.15;89.62;97129.95;1805114;79;21309;-74
2020/12/04 00:29:41;;;;;;;19.90;10.37;;;;;;;-0.14;89.80;97125.67;1805121;79;20906;-74
2020/12/04 00:32:08;;;;;;;18.60;9.90;;;;;;;-0.16;89.91;97122.36;1805037;79;21491;-74
2020/12/04 00:34:35;;;;;;;20.08;10.75;;;;;;;-0.14;90.08;97125.22;1805230;79;21037;-74
2020/12/04 00:37:03;;;;;;;21.27;10.73;;;;;;;-0.14;90.30;97129.50;1805051;79;22087;-74
2020/12/04 00:39:30;;;;;;;20.73;10.93;;;;;;;-0.16;90.30;97132.12;1805174;79;21037;-74
2020/12/04 00:42:01;;;;;;;22.02;9.98;;;;;;;-0.17;90.39;97141.95;1805086;79;21257;-74
2020/12/04 00:44:28;;;;;;;22.62;10.98;;;;;;;-0.17;90.45;97145.78;1805134;79;20975;-74
2020/12/04 00:47:02;;;;;;;21.55;11.33;;;;;;;-0.15;90.54;97136.80;1805113;79;20966;-74
2020/12/04 00:49:30;;;;;;;20.60;10.75;;;;;;;-0.15;90.51;97138.90;1804872;79;21631;-74
2020/12/04 00:51:57;;;;;;;22.45;11.48;;;;;;;-0.14;90.47;97129.50;1805006;79;21419;-74
2020/12/04 00:54:25;;;;;;;22.67;11.63;;;;;;;-0.12;90.46;97131.53;1805126;79;20919;-74
2020/12/04 00:56:53;;;;;;;21.23;11.15;;;;;;;-0.13;90.30;97152.44;1805109;79;20902;-74
2020/12/04 00:59:24;;;;;;;22.93;11.00;;;;;;;-0.13;90.19;97143.94;1805075;79;20915;-75
2020/12/04 01:01:52;;;;;;;25.40;13.32;;;;;;;-0.14;90.12;97144.39;1805058;79;21243;-74
2020/12/04 01:04:19;;;;;;;28.62;12.25;;;;;;;-0.11;90.19;97144.24;1805026;79;21108;-74
2020/12/04 01:06:46;;;;;;;21.17;11.90;;;;;;;-0.12;90.02;97133.64;1805181;79;20942;-75
2020/12/04 01:09:15;;;;;;;22.20;11.95;;;;;;;-0.08;89.99;97124.95;1805103;79;20927;-74
2020/12/04 01:11:43;;;;;;;24.55;12.50;;;;;;;-0.07;89.86;97121.50;1805074;79;21050;-75
2020/12/04 01:14:10;;;;;;;22.90;11.97;;;;;;;-0.02;89.77;97117.44;1805197;79;21937;-74
2020/12/04 01:16:37;;;;;;;21.90;11.77;;;;;;;-0.02;89.62;97108.50;1805160;79;21088;-74
2020/12/04 01:19:04;;;;;;;21.30;11.63;;;;;;;-0.02;89.42;97118.72;1760328;81;20933;-74
2020/12/04 01:21:31;;;;;;;22.53;11.87;;;;;;;-0.06;89.42;97119.32;1805037;79;20882;-74
2020/12/04 01:23:58;;;;;;;24.92;13.05;;;;;;;-0.06;89.53;97104.44;1805085;79;20994;-74
2020/12/04 01:26:25;;;;;;;24.72;13.35;;;;;;;-0.07;89.56;97095.11;1805085;79;21438;-74
2020/12/04 01:28:52;;;;;;;23.67;12.43;;;;;;;-0.08;89.63;97093.45;1805080;79;20938;-74
2020/12/04 01:31:19;;;;;;;26.12;12.07;;;;;;;-0.09;89.79;97098.98;1804983;79;21001;-74
2020/12/04 01:33:46;;;;;;;24.10;12.50;;;;;;;-0.09;89.85;97104.09;1813292;79;20926;-74
2020/12/04 01:36:14;;;;;;;19.73;10.43;;;;;;;-0.06;89.88;97094.20;1805764;79;21302;-74
2020/12/04 01:38:42;;;;;;;26.10;13.88;;;;;;;-0.05;89.85;97087.74;1805755;79;21195;-74
2020/12/04 01:41:09;;;;;;;25.32;13.48;;;;;;;-0.05;89.65;97102.25;1805571;79;20974;-74
2020/12/04 01:43:38;;;;;;;22.65;11.83;;;;;;;-0.04;89.64;97097.52;1805694;79;21156;-74
2020/12/04 01:46:05;;;;;;;20.62;12.05;;;;;;;-0.03;89.77;97097.89;1805608;79;20903;-74
2020/12/04 01:48:32;;;;;;;21.27;12.43;;;;;;;-0.02;89.83;97091.88;1805727;79;20931;-74
2020/12/04 01:51:00;;;;;;;21.75;12.00;;;;;;;0.00;89.93;97104.17;1805638;79;21190;-74
2020/12/04 01:53:27;;;;;;;24.95;11.95;;;;;;;0.01;90.09;97094.77;1783031;79;21405;-75
2020/12/04 01:55:54;;;;;;;20.97;11.25;;;;;;;0.02;90.14;97086.20;1805596;79;21019;-75
2020/12/04 01:58:21;;;;;;;23.70;11.17;;;;;;;-0.01;90.17;97082.03;1805588;79;20898;-74
2020/12/04 02:00:48;;;;;;;19.67;10.43;;;;;;;-0.03;90.34;97064.20;1805624;79;20935;-74
2020/12/04 02:03:16;;;;;;;22.13;12.15;;;;;;;-0.03;90.54;97092.33;1805665;79;20966;-74
2020/12/04 02:05:59;;;;;;;20.10;10.43;;;;;;;0.00;90.68;97095.22;1805579;79;21049;-75
2020/12/04 02:08:42;;;;;;;20.25;10.60;;;;;;;0.03;90.69;97081.46;1805592;79;20986;-75
2020/12/04 02:11:17;;;;;;;23.27;12.05;;;;;;;-0.01;90.90;97071.80;1805780;79;27961;-74
2020/12/04 02:13:45;;;;;;;21.95;11.30;;;;;;;-0.04;91.02;97074.06;1805630;79;20911;-74
2020/12/04 02:16:17;;;;;;;20.77;10.75;;;;;;;-0.06;91.14;97068.19;1805630;79;21364;-74
2020/12/04 02:18:44;;;;;;;21.90;11.20;;;;;;;-0.07;91.26;97062.70;1805577;79;20958;-74
2020/12/04 02:21:12;;;;;;;17.77;10.10;;;;;;;-0.06;91.46;97056.69;1805630;79;20942;-74
2020/12/04 02:23:39;;;;;;;21.82;11.75;;;;;;;-0.06;91.53;97063.53;1805653;79;20942;-74
2020/12/04 02:26:07;;;;;;;23.42;12.30;;;;;;;-0.06;91.57;97063.53;1805663;79;20997;-74
2020/12/04 02:28:38;;;;;;;25.73;13.07;;;;;;;-0.05;91.58;97067.73;1805623;79;21325;-74
2020/12/04 02:31:05;;;;;;;22.15;12.33;;;;;;;-0.05;91.59;97067.29;1805589;79;21060;-74
2020/12/04 02:33:33;;;;;;;21.52;12.55;;;;;;;-0.04;91.60;97065.11;1823441;78;20874;-74
2020/12/04 02:36:02;;;;;;;24.12;12.07;;;;;;;0.01;91.59;97058.98;1830520;78;20894;-74
2020/12/04 02:38:29;;;;;;;19.52;11.57;;;;;;;0.00;91.59;97065.81;1830629;78;21414;-74
2020/12/04 02:40:56;;;;;;;20.27;10.63;;;;;;;-0.01;91.56;97075.64;1830616;78;21639;-74
2020/12/04 02:43:23;;;;;;;20.40;10.97;;;;;;;-0.02;91.59;97057.37;1830538;78;21316;-74
2020/12/04 02:45:51;;;;;;;22.70;11.97;;;;;;;-0.04;91.63;97062.55;1830624;78;21060;-74
2020/12/04 02:48:18;;;;;;;21.93;11.20;;;;;;;-0.07;91.69;97056.77;1830562;78;21407;-74
2020/12/04 02:50:45;;;;;;;22.37;11.40;;;;;;;-0.08;91.72;97037.22;1830615;78;21403;-74
2020/12/04 02:53:13;;;;;;;19.98;11.35;;;;;;;-0.11;91.90;97046.28;1830646;78;21195;-75
2020/12/04 02:55:40;;;;;;;22.10;11.80;;;;;;;-0.12;92.07;97051.84;1830570;78;21316;-74
2020/12/04 02:58:08;;;;;;;22.65;12.15;;;;;;;-0.13;92.09;97038.69;1830651;78;20925;-74
2020/12/04 03:00:35;;;;;;;23.25;12.53;;;;;;;-0.14;92.03;97027.27;1830544;78;21308;-74
2020/12/04 03:03:02;;;;;;;22.60;11.78;;;;;;;-0.13;92.06;97028.91;1830583;78;21328;-74
2020/12/04 03:05:29;;;;;;;20.90;11.60;;;;;;;-0.12;92.17;97025.00;1830562;78;20984;-74
2020/12/04 03:07:56;;;;;;;21.03;12.23;;;;;;;-0.11;92.32;97042.45;1830497;78;21084;-74
2020/12/04 03:10:24;;;;;;;26.57;13.13;;;;;;;-0.11;92.38;97045.83;1830536;78;20902;-74
2020/12/04 03:12:51;;;;;;;24.43;13.32;;;;;;;-0.12;92.36;97036.51;1830566;78;20909;-74
2020/12/04 03:15:18;;;;;;;21.80;11.53;;;;;;;-0.13;92.30;97041.24;1830615;78;20980;-74
2020/12/04 03:17:46;;;;;;;24.30;12.40;;;;;;;-0.13;92.32;97045.08;1830558;78;21135;-74
2020/12/04 03:20:13;;;;;;;20.80;11.50;;;;;;;-0.12;92.27;97048.01;1830562;78;20926;-74
2020/12/04 03:22:40;;;;;;;24.82;12.90;;;;;;;-0.09;92.38;97050.41;1830627;78;20977;-74
2020/12/04 03:25:07;;;;;;;22.17;12.47;;;;;;;-0.08;92.46;97032.93;1830610;78;21000;-75
2020/12/04 03:27:34;;;;;;;22.27;11.50;;;;;;;-0.05;92.45;97037.06;1830602;78;20921;-74
2020/12/04 03:30:01;;;;;;;24.17;13.37;;;;;;;-0.04;92.40;97024.66;1830596;78;21984;-74
2020/12/04 03:32:28;;;;;;;22.15;12.90;;;;;;;-0.02;92.31;97022.85;1827174;78;21009;-74
2020/12/04 03:34:56;;;;;;;24.37;12.67;;;;;;;-0.02;92.30;97016.02;1807537;79;20994;-74
2020/12/04 03:37:26;;;;;;;20.90;12.70;;;;;;;-0.04;92.39;97038.72;1807540;79;20899;-74
2020/12/04 03:39:53;;;;;;;23.43;12.43;;;;;;;-0.04;92.47;97013.16;1807677;79;20907;-74
2020/12/04 03:42:20;;;;;;;23.33;12.57;;;;;;;-0.06;92.50;97011.13;1807535;79;21987;-75
2020/12/04 03:44:48;;;;;;;22.30;13.30;;;;;;;-0.05;92.52;97005.11;1807522;79;20969;-75
2020/12/04 03:47:15;;;;;;;23.40;13.30;;;;;;;-0.05;92.51;97009.77;1807649;79;20923;-75
2020/12/04 03:49:42;;;;;;;23.50;13.03;;;;;;;-0.04;92.51;97009.32;1807573;79;20920;-75
2020/12/04 03:52:09;;;;;;;22.83;13.57;;;;;;;-0.05;92.59;97012.33;1807605;79;21108;-75
2020/12/04 03:54:36;;;;;;;24.77;13.38;;;;;;;-0.04;92.72;96997.81;1807702;79;21682;-75
2020/12/04 03:57:03;;;;;;;23.62;12.90;;;;;;;-0.06;92.80;96995.79;1807590;79;20946;-75
2020/12/04 03:59:31;;;;;;;21.97;11.50;;;;;;;-0.09;92.83;96986.52;1807695;79;20970;-75
2020/12/04 04:01:59;;;;;;;22.40;11.60;;;;;;;-0.10;92.98;96987.41;1807652;79;21377;-75
2020/12/04 04:04:26;;;;;;;24.67;13.68;;;;;;;-0.07;93.09;96997.97;1807682;79;21130;-75
2020/12/04 04:06:54;;;;;;;23.70;12.63;;;;;;;-0.06;93.20;96989.40;1807750;79;21305;-73
2020/12/04 04:09:22;;;;;;;30.75;18.60;;;;;;;-0.06;93.25;96984.28;1807678;79;21325;-73
2020/12/04 04:11:49;;;;;;;27.27;15.70;;;;;;;-0.06;93.23;96987.67;1807638;79;21002;-73
2020/12/04 04:14:16;;;;;;;22.67;12.50;;;;;;;-0.05;93.25;96988.49;1807671;79;21416;-73
2020/12/04 04:16:43;;;;;;;26.07;15.40;;;;;;;-0.03;93.32;97007.14;1807692;79;21309;-73
2020/12/04 04:19:10;;;;;;;28.47;15.43;;;;;;;-0.03;93.30;96996.91;1807671;79;21428;-73
2020/12/04 04:21:39;;;;;;;24.70;14.50;;;;;;;-0.02;93.24;96984.51;1807624;79;20974;-73
2020/12/04 04:24:07;;;;;;;25.77;14.10;;;;;;;-0.02;93.24;96991.72;1807634;79;21005;-73
2020/12/04 04:26:35;;;;;;;23.03;12.73;;;;;;;-0.01;93.21;97004.05;1807620;79;20973;-74
2020/12/04 04:29:02;;;;;;;22.62;12.88;;;;;;;0.02;93.26;97008.22;1807817;79;20938;-73
2020/12/04 04:31:29;;;;;;;23.50;13.43;;;;;;;0.05;93.19;96988.89;1807680;79;21029;-73
2020/12/04 04:33:56;;;;;;;25.60;14.28;;;;;;;0.07;93.17;97000.70;1822372;78;21151;-74
2020/12/04 04:36:24;;;;;;;23.93;13.87;;;;;;;0.09;93.11;96999.37;1830690;78;21336;-74
2020/12/04 04:38:51;;;;;;;24.80;14.80;;;;;;;0.08;93.09;96988.73;1830623;78;21323;-73
2020/12/04 04:41:19;;;;;;;22.70;12.43;;;;;;;0.09;93.15;96978.91;1830726;78;21044;-73
2020/12/04 04:43:46;;;;;;;24.80;14.33;;;;;;;0.09;93.19;96974.63;1830758;78;21903;-74
2020/12/04 04:46:21;;;;;;;25.95;16.65;;;;;;;0.11;93.25;96987.33;1830718;78;20945;-73
2020/12/04 04:48:54;;;;;;;28.35;17.57;;;;;;;0.13;93.33;96983.80;1828745;78;20997;-73
2020/12/04 04:51:22;;;;;;;28.45;18.55;;;;;;;0.16;93.23;96985.38;1830761;78;20933;-73
2020/12/04 04:53:57;;;;;;;26.80;15.48;;;;;;;0.16;93.19;96972.12;1830704;78;21416;-74
2020/12/04 04:56:25;;;;;;;25.20;15.10;;;;;;;0.16;93.25;96984.09;1830673;78;21438;-73
2020/12/04 04:58:53;;;;;;;27.50;16.23;;;;;;;0.16;93.43;96986.20;1830635;78;20925;-74
2020/12/04 05:01:20;;;;;;;23.77;14.27;;;;;;;0.18;93.50;96983.14;1830706;78;20929;-73
2020/12/04 05:03:58;;;;;;;27.75;16.07;;;;;;;0.19;93.52;96982.23;1830579;78;20997;-73
2020/12/04 05:06:35;;;;;;;24.57;13.90;;;;;;;0.21;93.51;97002.62;1830757;78;21041;-73
2020/12/04 05:09:08;;;;;;;27.55;17.98;;;;;;;0.21;93.55;96994.48;1830771;78;21891;-73
2020/12/04 05:11:37;;;;;;;24.00;12.80;;;;;;;0.23;93.54;97006.75;1830581;78;20989;-74
2020/12/04 05:14:13;;;;;;;25.40;14.33;;;;;;;0.26;93.55;97001.51;1830663;78;20870;-73
2020/12/04 05:16:42;;;;;;;24.37;13.32;;;;;;;0.27;93.53;97005.72;1830620;78;21099;-74
2020/12/04 05:19:09;;;;;;;23.17;13.90;;;;;;;0.31;93.43;96994.05;1830655;78;21529;-73
2020/12/04 05:21:37;;;;;;;25.82;13.32;;;;;;;0.30;93.33;96987.28;1830636;78;21719;-74
2020/12/04 05:24:04;;;;;;;26.30;14.23;;;;;;;0.30;93.38;96988.56;1830631;78;21315;-73
2020/12/04 05:26:37;;;;;;;24.55;13.55;;;;;;;0.30;93.49;96979.61;1830668;78;21312;-74
2020/12/04 05:29:05;;;;;;;27.07;14.63;;;;;;;0.29;93.59;96982.63;1830828;78;20969;-73
2020/12/04 05:31:34;;;;;;;26.50;14.83;;;;;;;0.33;93.65;97006.31;1830704;78;20937;-74
2020/12/04 05:34:18;;;;;;;26.67;14.77;;;;;;;0.34;93.66;97005.44;1830536;78;21361;-73
2020/12/04 05:36:49;;;;;;;27.02;14.75;;;;;;;0.35;93.63;96998.14;1830560;78;21414;-74
2020/12/04 05:39:16;;;;;;;25.82;14.70;;;;;;;0.36;93.70;96995.95;1830628;78;20976;-73
2020/12/04 05:41:49;;;;;;;27.13;15.05;;;;;;;0.37;93.81;96976.69;1830535;78;20985;-74
2020/12/04 05:44:16;;;;;;;;;;;;;;;0.37;93.87;96998.88;1833507;78;21159;-74
2020/12/04 05:46:53;;;;;;;26.30;14.40;;;;;;;0.38;93.93;97003.09;1830676;78;21187;-74
2020/12/04 05:49:20;;;;;;;27.80;13.83;;;;;;;0.38;93.98;97006.93;1830572;78;21499;-73
2020/12/04 05:51:52;;;;;;;24.70;13.90;;;;;;;0.38;94.10;97007.76;1814569;77;21008;-73
2020/12/04 05:54:21;;;;;;;26.53;14.50;;;;;;;0.38;94.20;97005.20;1772661;79;20930;-74
2020/12/04 05:56:50;;;;;;;26.75;14.60;;;;;;;0.40;94.28;97016.18;1798111;79;20925;-79
2020/12/04 05:59:21;;;;;;;29.87;15.40;;;;;;;0.43;94.30;97013.95;1810106;78;21334;-77
2020/12/04 06:01:48;;;;;;;25.37;14.43;;;;;;;0.45;94.24;97005.74;1815909;78;20987;-80
2020/12/04 06:04:18;;;;;;;25.97;13.67;;;;;;;0.46;94.14;96988.20;1813057;78;21169;-75
2020/12/04 06:06:45;;;;;;;28.32;14.65;;;;;;;0.46;94.09;96993.32;1779894;79;21109;-76
2020/12/04 06:09:13;;;;;;;28.52;16.75;;;;;;;0.46;94.16;96990.77;1788014;79;21152;-77
2020/12/04 06:11:48;;;;;;;27.42;14.80;;;;;;;0.47;94.17;96993.24;1791673;79;21188;-77
2020/12/04 06:14:20;;;;;;;29.10;17.15;;;;;;;0.47;94.25;96982.18;1793975;79;21191;-78
2020/12/04 06:17:08;;;;;;;26.68;15.70;;;;;;;0.45;94.42;96977.59;1788329;79;21128;-78
2020/12/04 06:19:38;;;;;;;32.10;17.90;;;;;;;0.44;94.49;96998.97;1783776;79;21405;-80
2020/12/04 06:22:17;;;;;;;29.02;17.27;;;;;;;0.45;94.61;97016.80;1777841;79;21120;-79
2020/12/04 06:25:00;;;;;;;30.10;17.60;;;;;;;0.45;94.71;96999.34;1786213;79;21606;-77
2020/12/04 06:27:46;;;;;;;38.20;20.88;;;;;;;0.47;94.71;97006.03;1803527;79;21234;-77
2020/12/04 06:30:16;;;;;;;30.05;15.63;;;;;;;0.47;94.75;97006.48;1799978;79;21146;-78
2020/12/04 06:32:51;;;;;;;34.30;22.07;;;;;;;0.48;94.86;97003.02;1798180;79;21049;-77
2020/12/04 06:35:42;;;;;;;30.13;18.40;;;;;;;0.48;94.83;96998.73;1782738;79;21138;-78
2020/12/04 06:38:39;;;;;;;28.90;15.78;;;;;;;0.50;94.78;97004.63;1773958;79;21208;-79
2020/12/04 06:41:24;;;;;;;34.70;18.32;;;;;;;0.52;94.93;96997.70;1773167;79;21112;-79
2020/12/04 06:44:09;;;;;;;27.40;17.25;;;;;;;0.54;94.95;97007.86;1790474;79;21144;-74
2020/12/04 06:46:40;;;;;;;33.63;21.25;;;;;;;0.55;94.85;97011.61;1778233;79;21304;-75
2020/12/04 06:49:37;;;;;;;33.37;18.10;;;;;;;0.55;94.80;97009.51;1708343;83;21184;-77
2020/12/04 06:52:16;;;;;;;27.48;16.77;;;;;;;0.57;94.92;97008.97;1728110;82;21570;-75
2020/12/04 06:54:46;;;;;;;29.77;18.10;;;;;;;0.59;94.85;97004.63;1777234;79;21594;-77
2020/12/04 06:57:22;;;;;;;30.20;17.25;;;;;;;0.61;94.67;97005.83;1780587;79;21168;-77
2020/12/04 06:59:50;;;;;;;32.30;19.92;;;;;;;0.63;94.64;97006.13;1738685;81;21154;-75
2020/12/04 07:02:25;;;;;;;27.93;14.70;;;;;;;0.67;94.46;97002.98;1708633;81;21155;-80
2020/12/04 07:04:52;;;;;;;30.68;15.32;;;;;;;0.68;94.22;97002.91;1738073;81;21591;-78
2020/12/04 07:07:25;;;;;;;25.50;14.55;;;;;;;0.68;94.19;96999.06;1722151;81;21515;-77
2020/12/04 07:09:58;;;;;;;29.40;16.65;;;;;;;0.72;94.11;96994.61;1730850;82;21175;-78
2020/12/04 07:12:27;;;;;;;27.13;16.05;;;;;;;0.75;93.88;96998.31;1728304;81;21203;-76
2020/12/04 07:14:56;;;;;;;28.65;16.52;;;;;;;0.77;93.69;96993.48;1761345;79;21162;-80
2020/12/04 07:17:26;;;;;;;26.48;14.75;;;;;;;0.76;93.54;96984.16;1778635;79;21183;-81
2020/12/04 07:19:54;;;;;;;29.55;14.55;;;;;;;0.77;93.57;96980.69;1781823;79;21591;-78
2020/12/04 07:22:23;;;;;;;28.07;15.93;;;;;;;0.79;93.52;96990.39;1778438;79;21191;-80
2020/12/04 07:24:51;;;;;;;34.85;17.35;;;;;;;0.80;93.59;96989.94;1779861;79;21150;-79
2020/12/04 07:27:26;;;;;;;28.62;14.63;;;;;;;0.81;93.63;96994.98;1783595;79;21160;-82
2020/12/04 07:29:54;;;;;;;33.63;17.07;;;;;;;0.87;93.69;97008.39;1726394;82;21404;-78
2020/12/04 07:32:28;;;;;;;32.83;17.23;;;;;;;0.91;93.67;97006.03;1739686;81;21179;-80
2020/12/04 07:34:55;;;;;;;36.80;19.17;;;;;;;0.95;93.57;97006.28;1734806;81;21212;-76
2020/12/04 07:37:26;;;;;;;29.82;16.42;;;;;;;0.97;93.47;97013.42;1736888;81;21559;-81
2020/12/04 07:39:54;;;;;;;31.65;18.67;;;;;;;0.99;93.39;97011.15;1714725;81;38145;-80
2020/12/04 07:42:22;;;;;;;29.48;16.57;;;;;;;1.00;93.39;97012.01;1736449;81;21266;-79
2020/12/04 07:44:52;;;;;;;28.73;16.17;;;;;;;1.01;93.46;97014.48;1730794;81;21160;-82
2020/12/04 07:47:20;;;;;;;29.25;16.25;;;;;;;1.04;93.51;97020.72;1752962;81;21140;-81
2020/12/04 07:49:53;;;;;;;29.85;16.60;;;;;;;1.07;93.46;97004.37;1723672;82;21762;-79
2020/12/04 07:52:24;;;;;;;28.40;15.70;;;;;;;1.10;93.41;97010.18;1714189;81;21256;-79
2020/12/04 07:55:09;;;;;;;27.58;16.45;;;;;;;1.13;93.37;97008.73;1754603;81;21439;-77
2020/12/04 07:58:04;;;;;;;27.90;16.00;;;;;;;1.15;93.35;97012.49;1738962;81;21539;-76
2020/12/04 08:00:32;;;;;;;31.12;17.73;;;;;;;1.19;93.36;97012.73;1724928;82;21005;-78
2020/12/04 08:03:10;;;;;;;30.37;17.27;;;;;;;1.24;93.30;97021.02;1724884;82;21582;-79
2020/12/04 08:05:41;;;;;;;29.90;17.07;;;;;;;1.26;93.21;97019.66;1728219;81;21179;-77
2020/12/04 08:08:08;;;;;;;32.00;18.07;;;;;;;1.28;93.16;97016.55;1728457;82;21373;-83
2020/12/04 08:10:36;;;;;;;27.75;15.83;;;;;;;1.27;93.16;97022.13;1726059;82;21182;-77
2020/12/04 08:13:04;;;;;;;32.42;18.60;;;;;;;1.28;93.22;97019.94;1729151;82;21216;-78
2020/12/04 08:15:31;;;;;;;31.42;16.67;;;;;;;1.30;93.28;97018.12;1725337;83;21219;-78
2020/12/04 08:18:04;;;;;;;33.23;18.67;;;;;;;1.34;93.28;97017.08;1724000;82;21142;-81
2020/12/04 08:20:32;;;;;;;32.70;18.90;;;;;;;1.35;93.25;97022.56;1735404;82;21377;-78
2020/12/04 08:23:00;;;;;;;33.75;18.80;;;;;;;1.38;93.20;97026.24;1726160;82;21625;-78
2020/12/04 08:25:29;;;;;;;32.45;17.52;;;;;;;1.42;93.15;97014.58;1730856;82;21041;-80
2020/12/04 08:27:57;;;;;;;34.30;20.68;;;;;;;1.43;93.14;97020.07;1727996;82;21189;-81
2020/12/04 08:30:27;;;;;;;34.78;22.60;;;;;;;1.44;93.20;97019.16;1715933;81;21163;-78
2020/12/04 08:33:02;;;;;;;36.73;22.73;;;;;;;1.47;93.26;97021.09;1731314;81;21380;-77
2020/12/04 08:35:41;;;;;;;37.67;25.30;;;;;;;1.51;93.16;97016.20;1735723;82;21147;-76
2020/12/04 08:38:12;;;;;;;36.20;22.82;;;;;;;1.54;93.15;97021.61;1750766;81;21155;-76
2020/12/04 08:40:42;;;;;;;33.10;20.08;;;;;;;1.57;93.00;97028.70;1794267;79;21697;-77
2020/12/04 08:43:13;;;;;;;33.35;19.55;;;;;;;1.60;93.02;97018.28;1792288;79;21112;-79
2020/12/04 08:45:48;;;;;;;38.20;25.10;;;;;;;1.64;93.05;97016.38;1790862;79;21365;-79
2020/12/04 08:48:22;;;;;;;43.33;27.13;;;;;;;1.66;93.00;97026.94;1785600;79;21210;-80
2020/12/04 08:50:55;;;;;;;35.80;21.60;;;;;;;1.69;92.96;97016.52;1789278;79;21168;-77
2020/12/04 08:53:24;;;;;;;35.70;20.52;;;;;;;1.71;93.01;97018.98;1797384;79;21131;-75
2020/12/04 08:55:56;;;;;;;33.13;19.27;;;;;;;1.72;93.06;97010.39;1792001;79;21147;-76
2020/12/04 08:58:25;;;;;;;27.70;15.05;;;;;;;1.75;93.05;97009.42;1795344;79;22285;-79
2020/12/04 09:00:54;;;;;;;29.10;16.90;;;;;;;1.77;93.09;96999.45;1789746;79;21207;-75
2020/12/04 09:03:22;;;;;;;32.70;18.85;;;;;;;1.79;93.11;97007.88;1787606;79;21152;-74
2020/12/04 09:05:50;;;;;;;29.35;16.52;;;;;;;1.83;93.16;97011.95;1796190;79;21153;-79
2020/12/04 09:08:18;;;;;;;28.47;16.20;;;;;;;1.86;93.07;96988.70;1744686;81;21147;-77
2020/12/04 09:10:45;;;;;;;28.20;14.90;;;;;;;1.87;93.07;96992.91;1746880;81;21502;-76
2020/12/04 09:13:12;;;;;;;30.20;16.23;;;;;;;1.90;93.07;97004.30;1755501;81;21020;-78
2020/12/04 09:15:42;;;;;;;30.62;18.12;;;;;;;1.92;93.03;97002.48;1786745;79;21914;-79
2020/12/04 09:18:09;;;;;;;27.10;16.00;;;;;;;1.96;93.09;96991.59;1794798;79;21138;-81
2020/12/04 09:20:40;;;;;;;29.85;16.27;;;;;;;1.97;93.05;96986.83;1789983;79;21147;-78
2020/12/04 09:23:10;;;;;;;34.45;16.30;;;;;;;1.97;93.09;96985.08;1793371;79;21211;-75
2020/12/04 09:25:38;;;;;;;37.83;23.30;;;;;;;1.97;93.19;96979.95;1795592;79;21461;-78
2020/12/04 09:28:07;;;;;;;29.32;17.02;;;;;;;1.97;93.33;96985.55;1790165;79;21166;-77
2020/12/04 09:30:34;;;;;;;28.32;16.60;;;;;;;1.99;93.42;96970.92;1788465;79;21066;-79
2020/12/04 09:33:01;;;;;;;27.40;15.63;;;;;;;2.03;93.48;96981.38;1788099;79;21115;-77
2020/12/04 09:35:29;;;;;;;26.02;15.55;;;;;;;2.08;93.49;96975.55;1786867;78;21448;-76
2020/12/04 09:37:56;;;;;;;37.33;22.42;;;;;;;2.14;93.47;96963.64;1724591;82;21175;-78
2020/12/04 09:40:24;;;;;;;36.05;22.67;;;;;;;2.16;93.27;96977.23;1734059;81;21140;-81
2020/12/04 09:42:51;;;;;;;26.52;16.62;;;;;;;2.20;93.28;96989.42;1725654;81;21191;-77
2020/12/04 09:45:18;;;;;;;25.20;15.45;;;;;;;2.24;93.22;96981.94;1734708;81;21158;-77
2020/12/04 09:47:46;;;;;;;26.27;15.45;;;;;;;2.28;93.21;96985.16;1732070;81;21662;-78
2020/12/04 09:50:15;;;;;;;27.58;15.98;;;;;;;2.34;93.09;96986.92;1734254;81;21132;-80
2020/12/04 09:52:43;;;;;;;28.25;16.17;;;;;;;2.37;92.94;96988.03;1729451;81;21116;-79
2020/12/04 09:55:12;;;;;;;27.25;14.43;;;;;;;2.39;92.82;96984.91;1737622;81;21053;-80
2020/12/04 09:57:43;;;;;;;35.03;19.27;;;;;;;2.41;92.74;96973.30;1725703;81;21079;-78
2020/12/04 10:00:11;;;;;;;36.60;18.37;;;;;;;2.43;92.78;96990.72;1725060;83;21827;-83
2020/12/04 10:02:41;;;;;;;40.48;18.75;;;;;;;2.46;92.79;96991.82;1726029;81;21447;-81
2020/12/04 10:05:09;;;;;;;31.55;17.62;;;;;;;2.50;92.76;96986.90;1688717;83;21613;-78
2020/12/04 10:07:36;;;;;;;31.23;18.32;;;;;;;2.53;92.65;96980.30;1742594;81;21146;-78
2020/12/04 10:10:06;;;;;;;28.10;15.43;;;;;;;2.54;92.55;96967.37;1731831;81;21549;-85
2020/12/04 10:12:34;;;;;;;30.85;16.45;;;;;;;2.57;92.49;96963.00;1729622;81;21664;-77
2020/12/04 10:15:01;;;;;;;32.67;21.60;;;;;;;2.60;92.46;96983.34;1730356;81;21525;-78
2020/12/04 10:17:28;;;;;;;31.35;18.00;;;;;;;2.62;92.39;96975.09;1731541;81;21167;-79
2020/12/04 10:19:56;;;;;;;25.72;15.75;;;;;;;2.66;92.26;96975.30;1723253;82;20945;-79
2020/12/04 10:22:24;;;;;;;26.27;15.58;;;;;;;2.66;92.16;96964.58;1730068;81;21159;-76
2020/12/04 10:24:51;;;;;;;24.12;14.70;;;;;;;2.66;92.19;96963.75;1730903;81;21219;-73
2020/12/04 10:27:18;;;;;;;25.30;14.43;;;;;;;2.66;92.25;96962.47;1726815;81;21183;-76
2020/12/04 10:29:48;;;;;;;26.75;12.88;;;;;;;2.65;92.27;96949.23;1728724;81;21089;-79
2020/12/04 10:32:16;;;;;;;26.95;16.12;;;;;;;2.65;92.37;96960.79;1692654;81;21140;-76
2020/12/04 10:34:47;;;;;;;27.73;15.80;;;;;;;2.66;92.49;96962.47;1740785;79;21192;-79
2020/12/04 10:37:15;;;;;;;24.50;14.38;;;;;;;2.67;92.46;96967.52;1759142;81;21221;-81
2020/12/04 10:39:43;;;;;;;25.95;13.53;;;;;;;2.72;92.36;96969.34;1789313;79;21546;-80
2020/12/04 10:42:10;;;;;;;23.20;13.53;;;;;;;2.77;92.26;96984.03;1800878;78;21143;-80
2020/12/04 10:44:37;;;;;;;25.08;14.07;;;;;;;2.84;91.98;96979.84;1804598;78;21135;-78
2020/12/04 10:47:05;;;;;;;25.50;15.48;;;;;;;2.86;91.86;96972.41;1799347;78;21154;-82
2020/12/04 10:49:34;;;;;;;26.02;15.13;;;;;;;2.90;91.66;96974.36;1804144;78;21213;-76
2020/12/04 10:52:03;;;;;;;26.27;15.63;;;;;;;2.93;91.44;96977.56;1811884;78;21136;-78
2020/12/04 10:54:31;;;;;;;26.80;14.58;;;;;;;2.96;91.35;96980.40;1803827;78;21487;-79
2020/12/04 10:56:58;;;;;;;30.55;16.17;;;;;;;2.98;91.19;96975.56;1807759;78;21174;-82
2020/12/04 10:59:25;;;;;;;29.70;15.90;;;;;;;3.02;91.12;96983.44;1765592;81;21082;-78
2020/12/04 11:02:06;;;;;;;27.48;15.13;;;;;;;3.03;90.97;96968.39;1785301;79;21885;-81
2020/12/04 11:07:11;;;;;;;26.65;15.58;;;;;;;3.07;90.64;96969.05;1820128;78;21239;-80
2020/12/04 11:09:44;;;;;;;27.15;14.73;;;;;;;3.05;90.66;96971.69;1762459;81;21209;-79
2020/12/04 11:12:13;;;;;;;24.15;13.93;;;;;;;3.04;90.77;96967.94;1795970;79;21602;-79
2020/12/04 11:14:43;;;;;;;25.92;14.10;;;;;;;3.04;90.88;96965.36;1804403;78;21376;-80
2020/12/04 11:17:11;;;;;;;25.62;14.45;;;;;;;3.06;90.84;96954.10;1786924;79;22164;-82
2020/12/04 11:19:42;;;;;;;26.65;15.03;;;;;;;3.08;90.85;96953.55;1783090;79;21091;-76
2020/12/04 11:22:13;;;;;;;25.10;14.55;;;;;;;3.09;90.83;96951.80;1777137;79;21653;-79
2020/12/04 11:24:43;;;;;;;25.90;13.62;;;;;;;3.08;90.91;96943.73;1781213;79;21179;-79
2020/12/04 11:27:10;;;;;;;24.45;13.08;;;;;;;3.07;91.05;96953.18;1795968;78;21200;-78
2020/12/04 11:29:40;;;;;;;22.30;13.68;;;;;;;3.10;91.11;96946.56;1806142;78;21028;-80
2020/12/04 11:32:07;;;;;;;23.92;14.00;;;;;;;3.13;91.04;96945.55;1803758;78;21167;-77
2020/12/04 11:34:34;;;;;;;24.77;13.45;;;;;;;3.14;90.96;96947.66;1788877;79;21586;-79